Iowa City, IA (52244)

4:08 AM CDT on August 27, 2016 (GMT -0500)
Welsh Village | | Change Station

Elev 735 ft 41.70 °N, 91.55 °W | Updated 17 seconds ago

Overcast
Overcast
66.4 °F
Feels Like 66.4 °F
N
0.0
Wind Variable Wind from SSE
Gusts 0.0 mph

Today
High -- | Low -- °F
--% Chance of Precip.
Yesterday
High -- | Low -- °F
Precip. -- in
Pressure 30.01 in
Visibility 10.0 miles
Clouds Overcast 700 ft
Dew Point 66 °F
Humidity 98%
Rainfall 0.39 in
Snow Depth Not available.
6:27 AM 7:46 PM
Waning Crescent, 26% visible
METAR KIOW 270852Z AUTO 03005KT 10SM -RA OVC007 19/18 A3002 RMK AO2 RAE14B51 SLP160 P0003 60013 T01940183 58007
Pressure 30.01 in
Visibility 10.0 miles
Clouds Overcast 700 ft
Dew Point 66 °F
Humidity 98%
Rainfall 0.39 in
Snow Depth Not available.
6:27 AM 7:46 PM
Waning Crescent, 26% visible
METAR KIOW 270852Z AUTO 03005KT 10SM -RA OVC007 19/18 A3002 RMK AO2 RAE14B51 SLP160 P0003 60013 T01940183 58007

10-Day Weather Forecast

Almanac

Astronomy

Aug. 27, 2016 Rise Set
Actual Time
Civil Twilight
Nautical Twilight
Astronomical Twilight
Moon
Length of Visible Light
Length of Day
Tomorrow will be .
, % of the Moon is Illuminated

Today's Extremes

State Highs State Lows

Community

WunderPhotos

Upload Photos

1,935,313 photos uploaded!

WunderBlog® & News

Nearby

Air Quality

  Air Quality AQ Index Pollutant
Not available.

Snow Depth

Station Depth Elevation

Earthquake Activity

City Distance Mag. Time & Date
Minimum magnitude displayed is 2.5.

Coastal Water Temperatures

Place Temperature

Stations

Nearby Weather Stations

Station Location Temp. Windchill Dew Point Humidity Wind Precip. Elev Updated Type
                   

Watches & Warnings

There are currently no watches in effect.